createdAt,value
2017-09-26T00:00:18.944Z,13.65
2017-09-26T00:01:27.484Z,13.58
2017-09-26T00:02:36.672Z,13.78
2017-09-26T00:03:45.209Z,13.76
2017-09-26T00:04:53.757Z,13.6
2017-09-26T00:06:02.622Z,13.72
2017-09-26T00:07:11.169Z,13.69
2017-09-26T00:08:20.034Z,13.72
2017-09-26T00:09:28.579Z,13.73
2017-09-26T00:10:37.124Z,13.62
2017-09-26T00:11:45.668Z,13.58
2017-09-26T00:12:54.214Z,13.6
2017-09-26T00:14:03.077Z,13.72
2017-09-26T00:15:11.620Z,13.65
2017-09-26T00:16:20.484Z,13.62
2017-09-26T00:17:29.025Z,13.65
2017-09-26T00:18:37.569Z,13.66
2017-09-26T00:19:46.436Z,13.6
2017-09-26T00:20:54.980Z,13.62
2017-09-26T00:22:03.855Z,13.58
2017-09-26T00:23:12.730Z,13.54
2017-09-26T00:24:21.609Z,13.57
2017-09-26T00:25:30.159Z,13.51
2017-09-26T00:26:38.707Z,13.57
2017-09-26T00:27:47.582Z,13.54
2017-09-26T00:28:56.136Z,13.54
2017-09-26T00:30:05.010Z,13.53
2017-09-26T00:31:14.209Z,13.55
2017-09-26T00:32:23.084Z,13.53
2017-09-26T00:33:31.634Z,13.53
2017-09-26T00:34:40.514Z,13.4
2017-09-26T00:35:49.062Z,13.4
2017-09-26T00:36:57.938Z,13.44
2017-09-26T00:38:06.813Z,13.4
2017-09-26T00:39:16.008Z,13.36
2017-09-26T00:40:24.881Z,13.39
2017-09-26T00:41:33.752Z,13.4
2017-09-26T00:42:42.298Z,13.27
2017-09-26T00:43:51.165Z,13.37
2017-09-26T00:45:00.674Z,13.39
2017-09-26T00:46:09.543Z,13.32
2017-09-26T00:47:18.410Z,13.37
2017-09-26T00:48:27.600Z,13.35
2017-09-26T00:49:36.465Z,13.35
2017-09-26T00:50:45.005Z,13.35
2017-09-26T00:51:54.195Z,13.28
2017-09-26T00:53:02.738Z,13.37
2017-09-26T00:54:11.280Z,13.39
2017-09-26T00:55:19.822Z,13.35
2017-09-26T00:56:29.015Z,13.39
2017-09-26T00:57:37.875Z,13.32
2017-09-26T00:58:46.418Z,13.37
2017-09-26T00:59:55.286Z,13.35
2017-09-26T01:01:03.860Z,13.36
2017-09-26T01:02:12.691Z,13.39
2017-09-26T01:03:21.234Z,13.31
2017-09-26T01:04:30.098Z,13.28
2017-09-26T01:05:38.962Z,13.29
2017-09-26T01:06:47.504Z,13.25
2017-09-26T01:07:56.051Z,13.31
2017-09-26T01:09:04.923Z,13.35
2017-09-26T01:10:13.467Z,13.31
2017-09-26T01:11:22.011Z,13.31
2017-09-26T01:12:30.876Z,13.25
2017-09-26T01:13:39.747Z,13.25
2017-09-26T01:14:48.291Z,13.27
2017-09-26T01:15:57.476Z,13.24
2017-09-26T01:17:06.679Z,13.27
2017-09-26T01:18:15.872Z,13.21
2017-09-26T01:19:24.738Z,13.29
2017-09-26T01:20:33.603Z,13.25
2017-09-26T01:21:42.147Z,13.21
2017-09-26T01:22:51.010Z,13.21
2017-09-26T01:23:59.557Z,13.27
2017-09-26T01:25:08.104Z,13.28
2017-09-26T01:26:17.295Z,13.2
2017-09-26T01:27:25.842Z,13.25
2017-09-26T01:28:34.385Z,13.24
2017-09-26T01:29:42.926Z,13.19
2017-09-26T01:30:51.467Z,13.21
2017-09-26T01:32:00.663Z,13.19
2017-09-26T01:33:09.208Z,13.17
2017-09-26T01:34:18.084Z,13.11
2017-09-26T01:35:26.947Z,13.01
2017-09-26T01:36:35.488Z,13.11
2017-09-26T01:37:44.356Z,13.02
2017-09-26T01:38:52.895Z,13.01
2017-09-26T01:40:01.763Z,12.98
2017-09-26T01:41:10.625Z,12.96
2017-09-26T01:42:19.171Z,12.94
2017-09-26T01:43:28.035Z,12.92
2017-09-26T01:44:37.548Z,12.88
2017-09-26T01:45:46.102Z,12.84
2017-09-26T01:46:54.644Z,12.83
2017-09-26T01:48:03.508Z,12.77
2017-09-26T01:49:12.380Z,12.78
2017-09-26T01:50:21.245Z,12.84
2017-09-26T01:51:30.104Z,12.86
2017-09-26T01:52:39.614Z,12.91
2017-09-26T01:53:48.158Z,12.94
2017-09-26T01:54:56.699Z,12.95
2017-09-26T01:56:05.243Z,12.95
2017-09-26T01:57:13.815Z,12.94
2017-09-26T01:58:22.651Z,12.96
2017-09-26T01:59:31.192Z,12.98
2017-09-26T02:00:39.737Z,13.02
2017-09-26T02:01:48.926Z,13.16
2017-09-26T02:02:57.787Z,13.07
2017-09-26T02:04:06.984Z,13.16
2017-09-26T02:05:15.852Z,13.19
2017-09-26T02:06:24.716Z,13.16
2017-09-26T02:07:33.582Z,13.17
2017-09-26T02:08:42.449Z,13.16
2017-09-26T02:09:51.313Z,13.2
2017-09-26T02:11:00.177Z,13.19
2017-09-26T02:12:09.044Z,13.19
2017-09-26T02:13:17.911Z,13.19
2017-09-26T02:14:26.776Z,13.13
2017-09-26T02:15:35.639Z,13.24
2017-09-26T02:16:44.827Z,13.19
2017-09-26T02:17:54.020Z,13.24
2017-09-26T02:19:02.567Z,13.19
2017-09-26T02:20:11.752Z,13.29
2017-09-26T02:21:20.293Z,13.25
2017-09-26T02:22:29.481Z,13.2
2017-09-26T02:23:38.024Z,13.21
2017-09-26T02:24:46.565Z,13.25
2017-09-26T02:25:55.435Z,13.31
2017-09-26T02:27:03.977Z,13.27
2017-09-26T02:28:12.845Z,13.31
2017-09-26T02:29:21.709Z,13.45
2017-09-26T02:30:30.892Z,13.37
2017-09-26T02:31:40.406Z,13.45
2017-09-26T02:32:49.275Z,13.45
2017-09-26T02:33:58.143Z,13.4
2017-09-26T02:35:06.684Z,13.44
2017-09-26T02:36:15.868Z,13.42
2017-09-26T02:37:25.062Z,13.36
2017-09-26T02:38:34.253Z,13.4
2017-09-26T02:39:42.797Z,13.39
2017-09-26T02:40:51.663Z,13.45
2017-09-26T02:42:01.101Z,13.53
2017-09-26T02:43:09.651Z,13.53
2017-09-26T02:44:18.531Z,13.54
2017-09-26T02:45:27.734Z,13.65
2017-09-26T02:46:36.597Z,13.54
2017-09-26T02:47:45.469Z,13.62
2017-09-26T02:48:54.014Z,13.6
2017-09-26T02:50:02.887Z,13.57
2017-09-26T02:51:11.753Z,13.66
2017-09-26T02:52:20.615Z,13.54
2017-09-26T02:53:29.157Z,13.68
2017-09-26T02:54:38.996Z,13.65
2017-09-26T02:55:47.534Z,13.65
2017-09-26T02:56:56.078Z,13.6
2017-09-26T02:58:04.948Z,13.54
2017-09-26T02:59:13.488Z,13.62
2017-09-26T03:00:22.032Z,13.57
2017-09-26T03:01:31.219Z,13.66
2017-09-26T03:02:39.762Z,13.54
2017-09-26T03:03:48.953Z,13.57
2017-09-26T03:04:57.498Z,13.62
2017-09-26T03:06:06.370Z,13.63
2017-09-26T03:07:14.907Z,13.65
2017-09-26T03:08:23.450Z,13.54
2017-09-26T03:09:31.999Z,13.66
2017-09-26T03:10:41.186Z,13.62
2017-09-26T03:11:49.728Z,13.57
2017-09-26T03:12:58.272Z,13.62
2017-09-26T03:14:06.815Z,13.6
2017-09-26T03:15:15.356Z,13.66
2017-09-26T03:16:24.547Z,13.62
2017-09-26T03:17:33.735Z,13.57
2017-09-26T03:18:42.276Z,13.57
2017-09-26T03:19:50.820Z,13.55
2017-09-26T03:20:59.688Z,13.58
2017-09-26T03:22:08.873Z,13.58
2017-09-26T03:23:17.739Z,13.58
2017-09-26T03:24:26.280Z,13.58
2017-09-26T03:25:34.824Z,13.65
2017-09-26T03:26:43.691Z,13.6
2017-09-26T03:27:52.231Z,13.58
2017-09-26T03:29:00.770Z,13.6
2017-09-26T03:30:09.315Z,13.57
2017-09-26T03:31:17.862Z,13.6
2017-09-26T03:32:26.725Z,13.57
2017-09-26T03:33:35.266Z,13.65
2017-09-26T03:34:44.131Z,13.63
2017-09-26T03:35:52.993Z,13.62
2017-09-26T03:37:01.537Z,13.54
2017-09-26T03:38:10.081Z,13.65
2017-09-26T03:39:18.944Z,13.63
2017-09-26T03:40:27.809Z,13.55
2017-09-26T03:41:36.349Z,13.6
2017-09-26T03:42:45.537Z,13.58
2017-09-26T03:43:55.057Z,13.53
2017-09-26T03:45:03.602Z,13.58
2017-09-26T03:46:12.464Z,13.58
2017-09-26T03:47:21.331Z,13.57
2017-09-26T03:48:30.202Z,13.65
2017-09-26T03:49:39.390Z,13.6
2017-09-26T03:50:48.587Z,13.62
2017-09-26T03:51:57.129Z,13.6
2017-09-26T03:53:05.671Z,13.62
2017-09-26T03:54:14.216Z,13.62
2017-09-26T03:55:23.081Z,13.62
2017-09-26T03:56:31.959Z,13.62
2017-09-26T03:57:40.824Z,13.6
2017-09-26T03:58:49.367Z,13.63
2017-09-26T03:59:58.879Z,13.68
2017-09-26T04:01:07.747Z,13.73
2017-09-26T04:02:16.934Z,13.7
2017-09-26T04:03:26.450Z,13.65
2017-09-26T04:04:35.636Z,13.62
2017-09-26T04:05:45.143Z,13.6
2017-09-26T04:06:53.689Z,13.63
2017-09-26T04:08:02.233Z,13.72
2017-09-26T04:09:11.099Z,13.72
2017-09-26T04:10:19.968Z,13.69
2017-09-26T04:11:28.834Z,13.63
2017-09-26T04:12:37.698Z,13.69
2017-09-26T04:13:46.241Z,13.65
2017-09-26T04:14:54.783Z,13.6
2017-09-26T04:16:03.331Z,13.58
2017-09-26T04:17:12.843Z,13.72
2017-09-26T04:18:21.712Z,13.53
2017-09-26T04:19:30.684Z,13.6
2017-09-26T04:20:39.226Z,13.6
2017-09-26T04:21:47.768Z,13.54
2017-09-26T04:22:56.310Z,13.58
2017-09-26T04:24:05.824Z,13.6
2017-09-26T04:25:15.013Z,13.55
2017-09-26T04:26:23.553Z,13.55
2017-09-26T04:27:32.739Z,13.53
2017-09-26T04:28:41.280Z,13.5
2017-09-26T04:29:50.142Z,13.54
2017-09-26T04:30:59.329Z,13.62
2017-09-26T04:32:07.874Z,13.6
2017-09-26T04:33:16.741Z,13.51
2017-09-26T04:34:25.288Z,13.53
2017-09-26T04:35:34.151Z,13.44
2017-09-26T04:36:43.016Z,13.53
2017-09-26T04:37:52.199Z,13.42
2017-09-26T04:39:01.067Z,13.45
2017-09-26T04:40:10.249Z,13.44
2017-09-26T04:41:19.115Z,13.51
2017-09-26T04:42:27.654Z,13.5
2017-09-26T04:43:36.522Z,13.42
2017-09-26T04:44:45.066Z,13.45
2017-09-26T04:45:53.934Z,13.4
2017-09-26T04:47:03.130Z,13.4
2017-09-26T04:48:11.995Z,13.37
2017-09-26T04:49:20.864Z,13.42
2017-09-26T04:50:29.734Z,13.45
2017-09-26T04:51:38.601Z,13.44
2017-09-26T04:52:47.788Z,13.42
2017-09-26T04:53:56.977Z,13.4
2017-09-26T04:55:05.840Z,13.4
2017-09-26T04:56:14.733Z,13.44
2017-09-26T04:57:23.597Z,13.44
2017-09-26T04:58:32.783Z,13.45
2017-09-26T04:59:41.645Z,13.37
2017-09-26T05:00:50.187Z,13.36
2017-09-26T05:01:58.728Z,13.35
2017-09-26T05:03:07.274Z,13.37
2017-09-26T05:04:16.137Z,13.42
2017-09-26T05:05:24.681Z,13.42
2017-09-26T05:06:33.221Z,13.39
2017-09-26T05:07:41.763Z,13.4
2017-09-26T05:08:50.307Z,13.32
2017-09-26T05:09:59.177Z,13.36
2017-09-26T05:11:08.364Z,13.36
2017-09-26T05:12:17.229Z,13.39
2017-09-26T05:13:26.096Z,13.32
2017-09-26T05:14:34.642Z,13.37
2017-09-26T05:15:43.514Z,13.42
2017-09-26T05:16:52.378Z,13.39
2017-09-26T05:18:01.566Z,13.37
2017-09-26T05:19:10.430Z,13.37
2017-09-26T05:20:19.615Z,13.4
2017-09-26T05:21:28.484Z,13.35
2017-09-26T05:22:37.029Z,13.37
2017-09-26T05:23:45.571Z,13.37
2017-09-26T05:24:54.437Z,13.32
2017-09-26T05:26:03.626Z,13.37
2017-09-26T05:27:12.814Z,13.42
2017-09-26T05:28:21.681Z,13.39
2017-09-26T05:29:30.548Z,13.47
2017-09-26T05:30:39.090Z,13.5
2017-09-26T05:31:47.954Z,13.39
2017-09-26T05:32:56.493Z,13.45
2017-09-26T05:34:05.039Z,13.48
2017-09-26T05:35:14.055Z,13.5
2017-09-26T05:36:22.921Z,13.47
2017-09-26T05:37:31.464Z,13.54
2017-09-26T05:38:40.005Z,13.53
2017-09-26T05:39:48.873Z,13.5
2017-09-26T05:40:57.413Z,13.54
2017-09-26T05:42:06.601Z,13.57
2017-09-26T05:43:15.149Z,13.51
2017-09-26T05:44:24.354Z,13.42
2017-09-26T05:45:33.543Z,13.44
2017-09-26T05:46:42.085Z,13.44
2017-09-26T05:47:50.629Z,13.5
2017-09-26T05:48:59.501Z,13.51
2017-09-26T05:50:08.377Z,13.44
2017-09-26T05:51:16.917Z,13.55
2017-09-26T05:52:25.779Z,13.53
2017-09-26T05:53:34.325Z,13.39
2017-09-26T05:54:42.863Z,13.48
2017-09-26T05:55:51.406Z,13.45
2017-09-26T05:57:00.268Z,13.55
2017-09-26T05:58:09.133Z,13.53
2017-09-26T05:59:18.319Z,13.57
2017-09-26T06:00:27.182Z,13.54
2017-09-26T06:01:35.724Z,13.57
2017-09-26T06:02:44.265Z,13.54
2017-09-26T06:03:52.810Z,13.58
2017-09-26T06:05:01.680Z,13.65
2017-09-26T06:06:10.724Z,13.57
2017-09-26T06:07:20.088Z,13.57
2017-09-26T06:08:29.037Z,13.55
2017-09-26T06:09:37.579Z,13.57
2017-09-26T06:10:46.118Z,13.62
2017-09-26T06:11:55.304Z,13.66
2017-09-26T06:13:03.850Z,13.62
2017-09-26T06:14:12.723Z,13.73
2017-09-26T06:15:21.266Z,13.73
2017-09-26T06:16:29.809Z,13.73
2017-09-26T06:17:38.683Z,13.7
2017-09-26T06:18:47.948Z,13.76
2017-09-26T06:19:56.814Z,13.73
2017-09-26T06:21:05.677Z,13.75
2017-09-26T06:22:14.541Z,13.72
2017-09-26T06:23:23.406Z,13.73
2017-09-26T06:24:31.951Z,13.81
2017-09-26T06:25:41.143Z,13.72
2017-09-26T06:26:50.333Z,13.88
2017-09-26T06:27:59.202Z,13.86
2017-09-26T06:29:08.068Z,13.87
2017-09-26T06:30:17.256Z,13.86
2017-09-26T06:31:26.452Z,13.83
2017-09-26T06:32:34.992Z,13.83
2017-09-26T06:33:43.860Z,13.9
2017-09-26T06:34:52.408Z,13.94
2017-09-26T06:36:00.952Z,13.94
2017-09-26T06:37:09.496Z,13.95
2017-09-26T06:38:18.364Z,14.02
2017-09-26T06:39:27.110Z,13.97
2017-09-26T06:40:35.655Z,13.93
2017-09-26T06:41:44.523Z,14.02
2017-09-26T06:42:53.067Z,14.08
2017-09-26T06:44:03.001Z,14.05
2017-09-26T06:45:11.694Z,14.06
2017-09-26T06:46:20.335Z,14.19
2017-09-26T06:47:29.358Z,14.13
2017-09-26T06:48:38.224Z,14.12
2017-09-26T06:49:46.771Z,14.15
2017-09-26T06:50:55.644Z,14.13
2017-09-26T06:52:04.831Z,14.13
2017-09-26T06:53:13.375Z,14.19
2017-09-26T06:54:21.917Z,14.15
2017-09-26T06:55:30.462Z,14.15
2017-09-26T06:56:39.330Z,14.19
2017-09-26T06:57:48.022Z,14.13
2017-09-26T06:58:56.567Z,14.23
2017-09-26T07:00:05.875Z,14.12
2017-09-26T07:01:14.420Z,14.16
2017-09-26T07:02:23.123Z,14.27
2017-09-26T07:03:31.736Z,14.28
2017-09-26T07:04:41.320Z,14.24
2017-09-26T07:05:49.862Z,14.19
2017-09-26T07:06:58.730Z,14.3
2017-09-26T07:08:07.602Z,14.3
2017-09-26T07:09:16.465Z,14.36
2017-09-26T07:10:25.025Z,14.34
2017-09-26T07:11:33.938Z,14.34
2017-09-26T07:12:43.128Z,14.39
2017-09-26T07:13:51.996Z,14.38
2017-09-26T07:15:00.542Z,14.48
2017-09-26T07:16:09.409Z,14.56
2017-09-26T07:17:17.952Z,14.51
2017-09-26T07:18:27.144Z,14.52
2017-09-26T07:19:36.013Z,14.6
2017-09-26T07:20:44.880Z,14.57
2017-09-26T07:21:53.423Z,14.52
2017-09-26T07:23:02.293Z,14.61
2017-09-26T07:24:10.840Z,14.67
2017-09-26T07:25:20.035Z,14.75
2017-09-26T07:26:29.545Z,14.67
2017-09-26T07:27:38.733Z,14.75
2017-09-26T07:28:47.923Z,14.69
2017-09-26T07:29:57.116Z,14.71
2017-09-26T07:31:05.981Z,14.74
2017-09-26T07:32:14.849Z,14.83
2017-09-26T07:33:23.713Z,14.77
2017-09-26T07:34:32.265Z,14.79
2017-09-26T07:35:41.141Z,14.87
2017-09-26T07:36:50.022Z,14.87
2017-09-26T07:37:59.124Z,14.97
2017-09-26T07:39:07.997Z,14.9
2017-09-26T07:40:16.540Z,14.89
2017-09-26T07:41:25.652Z,14.86
2017-09-26T07:42:34.566Z,14.95
2017-09-26T07:43:43.110Z,15.02
2017-09-26T07:44:51.837Z,14.97
2017-09-26T07:46:00.731Z,14.86
2017-09-26T07:47:09.277Z,15.02
2017-09-26T07:48:17.821Z,14.87
2017-09-26T07:49:26.687Z,14.94
2017-09-26T07:50:36.056Z,14.95
2017-09-26T07:51:44.926Z,14.97
2017-09-26T07:52:54.118Z,14.95
2017-09-26T07:54:02.666Z,14.85
2017-09-26T07:55:11.723Z,14.94
2017-09-26T07:56:20.383Z,14.93
2017-09-26T07:57:28.932Z,15.07
2017-09-26T07:58:37.476Z,15.12
2017-09-26T07:59:46.126Z,15.12
2017-09-26T08:00:55.332Z,15.15
2017-09-26T08:02:04.522Z,15.12
2017-09-26T08:03:13.066Z,15.13
2017-09-26T08:04:21.627Z,15.23
2017-09-26T08:05:30.170Z,15.15
2017-09-26T08:06:39.684Z,15.23
2017-09-26T08:07:48.231Z,15.16
2017-09-26T08:08:56.777Z,15.1
2017-09-26T08:10:05.974Z,15.3
2017-09-26T08:11:14.845Z,15.27
2017-09-26T08:12:23.391Z,15.3
2017-09-26T08:13:31.935Z,15.27
2017-09-26T08:14:40.479Z,15.26
2017-09-26T08:15:49.674Z,15.22
2017-09-26T08:16:58.213Z,15.19
2017-09-26T08:18:07.080Z,15.25
2017-09-26T08:19:15.626Z,15.1
2017-09-26T08:20:24.822Z,15.05
2017-09-26T08:21:33.687Z,14.97
2017-09-26T08:22:42.556Z,14.98
2017-09-26T08:23:51.107Z,15
2017-09-26T08:24:59.648Z,14.98
2017-09-26T08:26:08.517Z,14.95
2017-09-26T08:27:18.040Z,14.86
2017-09-26T08:28:27.203Z,14.93
2017-09-26T08:29:35.748Z,15.02
2017-09-26T08:30:44.939Z,15.05
2017-09-26T08:31:53.806Z,15.08
2017-09-26T08:33:02.996Z,15.15
2017-09-26T08:34:11.538Z,15.22
2017-09-26T08:35:20.405Z,15.19
2017-09-26T08:36:28.951Z,15.31
2017-09-26T08:37:37.942Z,15.27
2017-09-26T08:38:46.494Z,15.41
2017-09-26T08:39:55.372Z,15.33
2017-09-26T08:41:04.073Z,15.43
2017-09-26T08:42:12.942Z,15.37
2017-09-26T08:43:21.807Z,15.37
2017-09-26T08:44:30.354Z,15.47
2017-09-26T08:45:39.658Z,15.43
2017-09-26T08:46:48.253Z,15.4
2017-09-26T08:47:57.955Z,15.49
2017-09-26T08:49:06.502Z,15.43
2017-09-26T08:50:15.367Z,15.45
2017-09-26T08:51:24.239Z,15.44
2017-09-26T08:52:32.851Z,15.45
2017-09-26T08:53:41.487Z,15.53
2017-09-26T08:54:50.358Z,15.49
2017-09-26T08:55:59.522Z,15.55
2017-09-26T08:57:08.070Z,15.49
2017-09-26T08:58:16.616Z,15.52
2017-09-26T08:59:25.157Z,15.55
2017-09-26T09:00:34.021Z,15.62
2017-09-26T09:01:42.593Z,15.58
2017-09-26T09:02:51.783Z,15.71
2017-09-26T09:04:00.652Z,15.77
2017-09-26T09:05:09.521Z,15.83
2017-09-26T09:06:18.388Z,15.8
2017-09-26T09:07:27.255Z,15.7
2017-09-26T09:08:36.155Z,15.78
2017-09-26T09:09:45.022Z,15.8
2017-09-26T09:10:54.215Z,15.78
2017-09-26T09:12:03.087Z,15.83
2017-09-26T09:13:11.963Z,15.83
2017-09-26T09:14:20.835Z,15.84
2017-09-26T09:15:29.382Z,15.89
2017-09-26T09:16:38.328Z,15.88
2017-09-26T09:17:47.205Z,15.92
2017-09-26T09:18:56.396Z,15.89
2017-09-26T09:20:04.945Z,15.8
2017-09-26T09:21:13.851Z,15.71
2017-09-26T09:22:22.396Z,15.78
2017-09-26T09:23:31.272Z,15.8
2017-09-26T09:24:39.828Z,15.71
2017-09-26T09:25:49.154Z,15.65
2017-09-26T09:26:58.347Z,15.7
2017-09-26T09:28:07.218Z,15.74
2017-09-26T09:29:16.728Z,15.65
2017-09-26T09:30:25.914Z,15.73
2017-09-26T09:31:34.456Z,15.78
2017-09-26T09:32:43.320Z,15.74
2017-09-26T09:33:51.865Z,15.78
2017-09-26T09:35:01.444Z,15.88
2017-09-26T09:36:10.382Z,15.91
2017-09-26T09:37:21.180Z,15.96
2017-09-26T09:38:29.791Z,16
2017-09-26T09:39:38.662Z,15.92
2017-09-26T09:40:47.531Z,15.99
2017-09-26T09:41:56.725Z,15.99
2017-09-26T09:43:05.593Z,16.04
2017-09-26T09:44:15.121Z,15.98
2017-09-26T09:45:24.312Z,15.96
2017-09-26T09:46:33.179Z,15.98
2017-09-26T09:47:42.368Z,16.02
2017-09-26T09:48:51.877Z,15.99
2017-09-26T09:50:00.780Z,15.98
2017-09-26T09:51:09.328Z,16.04
2017-09-26T09:52:18.201Z,16.16
2017-09-26T09:53:27.105Z,16.22
2017-09-26T09:54:35.655Z,16.25
2017-09-26T09:55:44.207Z,16.25
2017-09-26T09:56:53.076Z,16.21
2017-09-26T09:58:01.621Z,16.4
2017-09-26T09:59:10.499Z,16.48
2017-09-26T10:00:19.045Z,16.51
2017-09-26T10:01:27.911Z,16.52
2017-09-26T10:02:36.458Z,16.48
2017-09-26T10:03:45.326Z,16.66
2017-09-26T10:04:53.872Z,16.69
2017-09-26T10:06:02.419Z,16.7
2017-09-26T10:07:10.968Z,16.77
2017-09-26T10:08:19.515Z,16.88
2017-09-26T10:09:28.061Z,17
2017-09-26T10:10:36.936Z,17
2017-09-26T10:11:45.805Z,17.02
2017-09-26T10:12:54.352Z,17.03
2017-09-26T10:14:03.225Z,17.09
2017-09-26T10:15:12.097Z,17.06
2017-09-26T10:16:20.965Z,17.18
2017-09-26T10:17:29.833Z,17.18
2017-09-26T10:18:38.384Z,17.28
2017-09-26T10:19:47.254Z,17.27
2017-09-26T10:20:56.123Z,17.45
2017-09-26T10:22:04.670Z,17.45
2017-09-26T10:23:13.215Z,17.55
2017-09-26T10:24:22.407Z,17.68
2017-09-26T10:25:30.957Z,17.71
2017-09-26T10:26:39.824Z,17.79
2017-09-26T10:27:48.704Z,17.84
2017-09-26T10:28:57.252Z,17.9
2017-09-26T10:30:06.123Z,17.99
2017-09-26T10:31:14.670Z,18.02
2017-09-26T10:32:23.217Z,18.13
2017-09-26T10:33:31.923Z,18.14
2017-09-26T10:34:40.793Z,18.17
2017-09-26T10:35:49.662Z,18.14
2017-09-26T10:36:58.531Z,18.16
2017-09-26T10:38:07.092Z,18.17
2017-09-26T10:39:15.639Z,18.26
2017-09-26T10:40:24.513Z,18.26
2017-09-26T10:41:33.064Z,18.38
2017-09-26T10:42:41.918Z,18.35
2017-09-26T10:43:50.585Z,18.39
2017-09-26T10:44:59.917Z,18.49
2017-09-26T10:46:08.797Z,18.49
2017-09-26T10:47:17.345Z,18.51
2017-09-26T10:48:25.926Z,18.68
2017-09-26T10:49:34.485Z,18.68
2017-09-26T10:50:43.034Z,18.69
2017-09-26T10:51:51.585Z,18.84
2017-09-26T10:53:00.453Z,18.87
2017-09-26T10:54:09.001Z,18.93
2017-09-26T10:55:17.876Z,19.09
2017-09-26T10:56:26.421Z,19.09
2017-09-26T10:57:35.610Z,19.17
2017-09-26T10:58:44.158Z,19.2
2017-09-26T10:59:52.958Z,19.17
2017-09-26T11:01:02.189Z,19.09
2017-09-26T11:02:10.740Z,19.17
2017-09-26T11:03:19.932Z,19.24
2017-09-26T11:04:28.803Z,19.28
2017-09-26T11:05:38.003Z,19.28
2017-09-26T11:06:46.870Z,19.35
2017-09-26T11:07:55.420Z,19.28
2017-09-26T11:09:04.290Z,19.42
2017-09-26T11:10:13.159Z,19.28
2017-09-26T11:11:22.030Z,19.35
2017-09-26T11:12:30.576Z,19.3
2017-09-26T11:13:39.120Z,19.19
2017-09-26T11:14:47.667Z,19.23
2017-09-26T11:15:56.212Z,19.17
2017-09-26T11:17:04.758Z,19.19
2017-09-26T11:18:13.635Z,19.19
2017-09-26T11:19:22.503Z,19.25
2017-09-26T11:20:31.380Z,19.3
2017-09-26T11:21:39.925Z,19.27
2017-09-26T11:22:49.116Z,19.35
2017-09-26T11:23:57.660Z,19.32
2017-09-26T11:25:06.532Z,19.43
2017-09-26T11:26:15.402Z,19.42
2017-09-26T11:27:23.947Z,19.47
2017-09-26T11:28:32.819Z,19.45
2017-09-26T11:29:41.364Z,19.52
2017-09-26T11:30:50.558Z,19.53
2017-09-26T11:31:59.104Z,19.5
2017-09-26T11:33:07.652Z,19.5
2017-09-26T11:34:16.198Z,19.53
2017-09-26T11:35:24.748Z,19.47
2017-09-26T11:36:33.616Z,19.45
2017-09-26T11:37:42.489Z,19.52
2017-09-26T11:38:51.357Z,19.5
2017-09-26T11:40:00.229Z,19.57
2017-09-26T11:41:08.774Z,19.61
2017-09-26T11:42:17.645Z,19.63
2017-09-26T11:43:26.191Z,19.79
2017-09-26T11:44:34.737Z,19.79
2017-09-26T11:45:43.606Z,19.8
2017-09-26T11:46:52.797Z,19.8
2017-09-26T11:48:01.346Z,19.75
2017-09-26T11:49:09.896Z,19.82
2017-09-26T11:50:18.441Z,19.74
2017-09-26T11:51:27.314Z,19.87
2017-09-26T11:52:36.186Z,19.85
2017-09-26T11:53:44.732Z,19.86
2017-09-26T11:54:53.279Z,19.74
2017-09-26T11:56:01.824Z,19.92
2017-09-26T11:57:10.696Z,19.85
2017-09-26T11:58:19.563Z,19.75
2017-09-26T11:59:28.111Z,19.79
2017-09-26T12:00:36.658Z,19.67
2017-09-26T12:01:45.207Z,19.61
2017-09-26T12:02:54.401Z,19.61
2017-09-26T12:04:03.597Z,19.71
2017-09-26T12:05:12.466Z,19.7
2017-09-26T12:06:21.656Z,19.74
2017-09-26T12:07:30.526Z,19.7
2017-09-26T12:08:39.397Z,19.74
2017-09-26T12:09:48.272Z,19.74
2017-09-26T12:10:57.465Z,19.82
2017-09-26T12:12:06.338Z,19.95
2017-09-26T12:13:15.530Z,19.86
2017-09-26T12:14:24.076Z,19.9
2017-09-26T12:15:32.946Z,19.97
2017-09-26T12:16:41.819Z,19.98
2017-09-26T12:17:50.365Z,19.92
2017-09-26T12:18:58.912Z,20.08
2017-09-26T12:20:07.456Z,20.04
2017-09-26T12:21:16.327Z,20.08
2017-09-26T12:22:25.198Z,20.15
2017-09-26T12:23:33.750Z,20.12
2017-09-26T12:24:42.616Z,20.18
2017-09-26T12:25:52.129Z,20.18
2017-09-26T12:27:01.001Z,20.05
2017-09-26T12:28:09.549Z,20.02
2017-09-26T12:29:18.421Z,20.12
2017-09-26T12:30:27.288Z,20.18
2017-09-26T12:31:36.482Z,20.11
2017-09-26T12:32:45.032Z,20.22
2017-09-26T12:33:53.901Z,20.26
2017-09-26T12:35:02.451Z,20.3
2017-09-26T12:36:11.323Z,20.23
2017-09-26T12:37:19.871Z,20.27
2017-09-26T12:38:28.421Z,20.37
2017-09-26T12:39:37.935Z,20.38
2017-09-26T12:40:46.481Z,20.42
2017-09-26T12:41:55.031Z,20.51
2017-09-26T12:43:04.221Z,20.38
2017-09-26T12:44:13.093Z,20.4
2017-09-26T12:45:22.291Z,20.49
2017-09-26T12:46:31.162Z,20.48
2017-09-26T12:47:39.719Z,20.48
2017-09-26T12:48:48.911Z,20.51
2017-09-26T12:49:57.457Z,20.41
2017-09-26T12:51:06.006Z,20.4
2017-09-26T12:52:14.555Z,20.38
2017-09-26T12:53:23.427Z,20.49
2017-09-26T12:54:31.973Z,20.48
2017-09-26T12:55:40.519Z,20.58
2017-09-26T12:56:49.066Z,20.51
2017-09-26T12:57:57.937Z,20.53
2017-09-26T12:59:06.808Z,20.48
2017-09-26T13:00:15.675Z,20.46
2017-09-26T13:01:24.224Z,20.54
2017-09-26T13:02:33.415Z,20.56
2017-09-26T13:03:42.292Z,20.54
2017-09-26T13:04:51.184Z,20.54
2017-09-26T13:06:00.058Z,20.51
2017-09-26T13:07:08.923Z,20.51
2017-09-26T13:08:18.113Z,20.54
2017-09-26T13:09:26.983Z,20.57
2017-09-26T13:10:35.714Z,20.64
2017-09-26T13:11:44.285Z,20.6
2017-09-26T13:12:53.573Z,20.6
2017-09-26T13:14:02.496Z,20.68
2017-09-26T13:15:11.469Z,20.64
2017-09-26T13:16:20.341Z,20.67
2017-09-26T13:17:28.892Z,20.63
2017-09-26T13:18:38.080Z,20.71
2017-09-26T13:19:46.653Z,20.63
2017-09-26T13:20:55.522Z,20.68
2017-09-26T13:22:04.714Z,20.71
2017-09-26T13:23:13.583Z,20.76
2017-09-26T13:24:22.986Z,20.81
2017-09-26T13:25:31.543Z,20.79
2017-09-26T13:26:40.091Z,20.74
2017-09-26T13:27:48.974Z,20.83
2017-09-26T13:28:58.219Z,20.82
2017-09-26T13:30:07.339Z,20.78
2017-09-26T13:31:16.214Z,20.78
2017-09-26T13:32:24.892Z,20.81
2017-09-26T13:33:33.442Z,20.79
2017-09-26T13:34:41.992Z,20.68
2017-09-26T13:35:50.543Z,20.74
2017-09-26T13:36:59.236Z,20.75
2017-09-26T13:38:08.482Z,20.75
2017-09-26T13:39:17.033Z,20.75
2017-09-26T13:40:25.583Z,20.66
2017-09-26T13:41:34.128Z,20.67
2017-09-26T13:42:42.671Z,20.71
2017-09-26T13:43:51.218Z,20.56
2017-09-26T13:45:00.145Z,20.64
2017-09-26T13:46:08.695Z,20.57
2017-09-26T13:47:17.242Z,20.58
2017-09-26T13:48:26.442Z,20.63
2017-09-26T13:49:34.988Z,20.63
2017-09-26T13:50:43.533Z,20.68
2017-09-26T13:51:52.113Z,20.75
2017-09-26T13:53:00.987Z,20.72
2017-09-26T13:54:09.534Z,20.66
2017-09-26T13:55:18.083Z,20.67
2017-09-26T13:56:26.956Z,20.71
2017-09-26T13:57:35.841Z,20.6
2017-09-26T13:58:44.712Z,20.68
2017-09-26T13:59:53.578Z,20.64
2017-09-26T14:01:03.092Z,20.67
2017-09-26T14:02:11.972Z,20.74
2017-09-26T14:03:20.520Z,20.74
2017-09-26T14:04:29.391Z,20.66
2017-09-26T14:05:38.259Z,20.63
2017-09-26T14:06:47.453Z,20.63
2017-09-26T14:07:56.324Z,20.63
2017-09-26T14:09:05.199Z,20.63
2017-09-26T14:10:13.748Z,20.51
2017-09-26T14:11:22.296Z,20.48
2017-09-26T14:12:31.196Z,20.37
2017-09-26T14:13:40.401Z,20.38
2017-09-26T14:14:49.920Z,20.41
2017-09-26T14:15:58.791Z,20.38
2017-09-26T14:17:07.990Z,20.34
2017-09-26T14:18:16.546Z,20.4
2017-09-26T14:19:25.742Z,20.37
2017-09-26T14:20:34.289Z,20.26
2017-09-26T14:21:43.477Z,20.27
2017-09-26T14:22:52.349Z,20.35
2017-09-26T14:24:01.373Z,20.23
2017-09-26T14:25:10.240Z,20.25
2017-09-26T14:26:18.788Z,20.29
2017-09-26T14:27:27.657Z,20.29
2017-09-26T14:28:36.203Z,20.27
2017-09-26T14:29:45.069Z,20.27
2017-09-26T14:30:53.613Z,20.29
2017-09-26T14:32:02.482Z,20.25
2017-09-26T14:33:11.026Z,20.19
2017-09-26T14:34:19.900Z,20.19
2017-09-26T14:35:28.777Z,20.12
2017-09-26T14:36:37.327Z,20.25
2017-09-26T14:37:46.202Z,20.08
2017-09-26T14:38:54.759Z,20.07
2017-09-26T14:40:03.305Z,19.97
2017-09-26T14:41:12.174Z,20.02
2017-09-26T14:42:21.046Z,20.04
2017-09-26T14:43:29.593Z,20
2017-09-26T14:44:38.140Z,20.01
2017-09-26T14:45:47.010Z,19.98
2017-09-26T14:46:55.556Z,19.9
2017-09-26T14:48:04.754Z,19.86
2017-09-26T14:49:13.777Z,19.93